Accueil
METAR-TAF:

METAR-TAF

Aéroports :

Aéroport international de Cochin

Kochi, Inde

latitude: 10-09-07N, longitude: 76-24-07E, altitude: 9 m

Observation

Le bulletin a été fait il y a 13 minutes, à 19:30 UTC
Vent calme
Température 26°C
Humidité 94%
Pression 1009 hPa
Visibilité: 3500 m
Quelques nuages à une hauteur de 1500 ft
Nuages épars à une hauteur de 8000 ft
brume

METAR: VOCI 101930Z 00000KT 3500 BR FEW015 SCT080 26/25 Q1009 NOSIG

Heure: 01:13 (19:43 UTC)

Prévision

Le bulletin a été fait il y a 2 heures et 43 minutes, à 17:00 UTC
Prévision valable du 10 à 18 UTC au 11 à 03 UTC
Vent 5 kt de ouest/sud-ouest
Visibilité: 4000 m
Quelques nuages à une hauteur de 1500 ft
Nuages épars à une hauteur de 8000 ft

TAF: VOCI 101700Z 1018/1103 25005KT 4000 FEW015 SCT080

Observations et prévisions météorologiques de plus de 4000 aéroports (messages METAR et TAF).

Les stations disponibles sont représentées par des disques jaunes et rouges sur la carte.

Passer la souris dessus pour voir le nom de la station.

Cliquer dessus pour voir les observations et prévisions météorologiques.

Pour changer de carte: cliquez sur les boutons verts avec une croix noire pour zoomer, sur le bouton vert avec un tiret pour effectuer un zoom arrière, ou sur les flèches vertes pour les cartes adjacentes.


METAR-TAF: